Time;durP1;ratioP1;P1;durP2;ratioP2;P2;SDS_P1;SDS_P2;PMS_P1;PMS_P2;Temp;Humidity;BMP_temperature;BMP_pressure;BME280_temperature;BME280_humidity;BME280_pressure;Samples;Min_cycle;Max_cycle;Signal;HPM_P1;HPM_P2
2023/05/12 00:01:52;;;;;;;;;;;;;;;16.61;47.25;101390.16;5076834;28;1050;-57
2023/05/12 00:04:17;;;;;;;;;;;;;;;17.82;47.58;101397.97;5087984;28;1192;-56
2023/05/12 00:06:43;;;;;;;;;;;;;;;17.05;48.36;101398.25;5091254;28;1197;-57
2023/05/12 00:09:08;;;;;;;;;;;;;;;16.91;48.57;101391.56;5095895;28;1087;-56
2023/05/12 00:11:35;;;;;;;;;;;;;;;17.76;47.80;101388.88;5080476;28;1949;-56
2023/05/12 00:14:01;;;;;;;;;;;;;;;17.00;48.45;101395.50;5075631;28;940;-56
2023/05/12 00:16:26;;;;;;;;;;;;;;;16.88;47.32;101403.03;5089098;28;1103;-56
2023/05/12 00:18:52;;;;;;;;;;;;;;;16.76;46.53;101403.22;5084329;28;1055;-56
2023/05/12 00:21:17;;;;;;;;;;;;;;;17.88;47.58;101394.19;5081045;28;1212;-56
2023/05/12 00:23:43;;;;;;;;;;;;;;;17.01;48.16;101385.31;5075622;28;1015;-56
2023/05/12 00:26:08;;;;;;;;;;;;;;;16.76;47.55;101389.47;5088817;28;1129;-56
2023/05/12 00:28:34;;;;;;;;;;;;;;;18.08;47.57;101401.72;5075792;28;1023;-56
2023/05/12 00:31:03;;;;;;;;;;;;;;;17.15;48.35;101388.47;5089819;28;1232;-57
2023/05/12 00:33:29;;;;;;;;;;;;;;;16.76;47.71;101393.03;5069094;28;1910;-56
2023/05/12 00:35:55;;;;;;;;;;;;;;;16.72;46.87;101396.59;5076974;28;1030;-56
2023/05/12 00:38:21;;;;;;;;;;;;;;;17.50;47.98;101387.06;5095395;28;883;-56
2023/05/12 00:40:46;;;;;;;;;;;;;;;16.92;47.95;101384.97;5094630;28;1073;-56
2023/05/12 00:43:12;;;;;;;;;;;;;;;16.71;47.26;101382.00;5069598;28;1310;-56
2023/05/12 00:45:38;;;;;;;;;;;;;;;17.40;47.90;101372.19;5065740;28;1189;-56
2023/05/12 00:48:03;;;;;;;;;;;;;;;17.06;48.20;101366.16;5087926;28;1110;-57
2023/05/12 00:50:29;;;;;;;;;;;;;;;16.70;47.70;101376.78;5097772;28;1082;-57
2023/05/12 00:52:54;;;;;;;;;;;;;;;16.62;46.72;101372.59;5078673;28;1934;-57
2023/05/12 00:55:20;;;;;;;;;;;;;;;16.52;46.31;101380.72;5080215;28;1121;-57
2023/05/12 00:57:46;;;;;;;;;;;;;;;17.69;47.18;101380.03;5081090;28;1312;-57
2023/05/12 01:00:13;;;;;;;;;;;;;;;16.82;48.14;101380.19;5077743;28;1417;-57
2023/05/12 01:02:40;;;;;;;;;;;;;;;16.77;46.87;101382.88;5054228;28;1401;-57
2023/05/12 01:05:06;;;;;;;;;;;;;;;17.45;47.63;101372.19;5060921;28;1626;-56
2023/05/12 01:07:32;;;;;;;;;;;;;;;16.82;48.04;101371.13;5069259;28;1075;-57
2023/05/12 01:09:58;;;;;;;;;;;;;;;16.66;47.08;101373.72;5079132;28;1103;-57
2023/05/12 01:12:25;;;;;;;;;;;;;;;17.24;47.90;101373.16;5060330;28;2052;-56
2023/05/12 01:14:52;;;;;;;;;;;;;;;16.93;48.29;101370.97;5078143;28;1234;-57
2023/05/12 01:17:22;;;;;;;;;;;;;;;16.65;47.76;101369.31;5061130;28;1063;-56
2023/05/12 01:19:49;;;;;;;;;;;;;;;16.47;47.12;101375.19;5094817;28;1126;-57
2023/05/12 01:22:18;;;;;;;;;;;;;;;17.35;47.47;101374.88;5071315;28;1075;-57
2023/05/12 01:24:46;;;;;;;;;;;;;;;16.65;48.17;101366.56;5063562;28;1299;-57
2023/05/12 01:27:13;;;;;;;;;;;;;;;16.43;47.28;101359.19;5080128;28;1596;-57
2023/05/12 01:29:39;;;;;;;;;;;;;;;16.41;46.51;101364.13;5063315;28;1483;-57
2023/05/12 01:32:05;;;;;;;;;;;;;;;17.32;47.21;101358.94;5098149;28;1918;-57
2023/05/12 01:34:31;;;;;;;;;;;;;;;16.77;47.81;101353.53;5063422;28;1166;-57
2023/05/12 01:36:56;;;;;;;;;;;;;;;17.84;47.49;101353.69;5060182;28;1486;-57
2023/05/12 01:39:22;;;;;;;;;;;;;;;18.19;47.56;101346.69;5076671;28;1279;-57
2023/05/12 01:41:48;;;;;;;;;;;;;;;17.23;48.37;101344.00;5070519;28;1190;-57
2023/05/12 01:44:13;;;;;;;;;;;;;;;16.81;47.89;101331.84;5091396;28;1194;-57
2023/05/12 01:46:39;;;;;;;;;;;;;;;16.69;46.99;101334.75;5060203;28;1137;-57
2023/05/12 01:49:05;;;;;;;;;;;;;;;17.37;47.99;101334.19;5056782;28;1154;-57
2023/05/12 01:51:31;;;;;;;;;;;;;;;16.87;47.78;101339.03;5075132;28;1914;-57
2023/05/12 01:53:57;;;;;;;;;;;;;;;16.58;47.56;101335.75;5073230;28;1139;-57
2023/05/12 01:56:25;;;;;;;;;;;;;;;17.57;48.37;101343.66;5071308;28;1163;-58
2023/05/12 01:58:51;;;;;;;;;;;;;;;16.96;48.21;101342.16;5079011;28;1231;-57
2023/05/12 02:01:16;;;;;;;;;;;;;;;17.60;48.62;101348.66;5080207;28;1149;-57
2023/05/12 02:03:42;;;;;;;;;;;;;;;17.30;48.82;101338.28;5079580;28;1118;-57
2023/05/12 02:06:11;;;;;;;;;;;;;;;16.85;48.06;101340.38;5068373;28;1411;-57
2023/05/12 02:08:37;;;;;;;;;;;;;;;17.51;48.64;101336.50;5051108;28;1051;-57
2023/05/12 02:11:08;;;;;;;;;;;;;;;17.18;48.74;101338.47;5079694;28;1104;-57
2023/05/12 02:13:33;;;;;;;;;;;;;;;16.84;47.82;101333.22;5074043;28;1980;-58
2023/05/12 02:16:00;;;;;;;;;;;;;;;17.61;48.10;101337.38;5071599;28;1082;-57
2023/05/12 02:18:25;;;;;;;;;;;;;;;16.97;48.48;101330.09;5079509;28;1134;-57
2023/05/12 02:20:52;;;;;;;;;;;;;;;16.77;47.29;101331.53;5079007;28;1393;-57
2023/05/12 02:23:18;;;;;;;;;;;;;;;17.73;47.73;101331.66;5065913;28;1617;-57
2023/05/12 02:25:43;;;;;;;;;;;;;;;17.37;48.38;101327.88;5078766;28;2089;-57
2023/05/12 02:28:10;;;;;;;;;;;;;;;16.85;48.20;101327.47;5096948;28;1011;-57
2023/05/12 02:30:37;;;;;;;;;;;;;;;16.71;46.91;101327.06;5067916;28;1236;-57
2023/05/12 02:33:04;;;;;;;;;;;;;;;17.92;47.55;101322.94;5063829;28;1914;-57
2023/05/12 02:35:30;;;;;;;;;;;;;;;16.96;48.68;101328.44;5079026;28;1229;-57
2023/05/12 02:37:56;;;;;;;;;;;;;;;16.74;47.90;101333.97;5079155;28;1416;-57
2023/05/12 02:40:22;;;;;;;;;;;;;;;17.29;48.19;101329.19;5079150;28;1346;-57
2023/05/12 02:42:48;;;;;;;;;;;;;;;17.07;48.41;101335.66;5078941;28;1162;-57
2023/05/12 02:45:13;;;;;;;;;;;;;;;16.77;47.73;101337.03;5079079;28;1195;-57
2023/05/12 02:47:39;;;;;;;;;;;;;;;17.73;47.93;101331.66;5073820;28;1480;-57
2023/05/12 02:50:05;;;;;;;;;;;;;;;17.03;48.00;101330.97;5059038;28;1111;-57
2023/05/12 02:52:31;;;;;;;;;;;;;;;16.81;48.05;101336.50;5063298;28;1977;-57
2023/05/12 02:54:57;;;;;;;;;;;;;;;17.38;48.41;101335.88;5067218;28;1447;-57
2023/05/12 02:57:22;;;;;;;;;;;;;;;16.85;47.92;101341.22;5093835;28;1042;-57
2023/05/12 02:59:48;;;;;;;;;;;;;;;17.57;48.38;101343.66;5067215;28;1134;-57
2023/05/12 03:02:14;;;;;;;;;;;;;;;17.05;48.62;101335.06;5076451;28;1101;-57
2023/05/12 03:04:40;;;;;;;;;;;;;;;16.81;47.65;101342.81;5069370;28;1526;-57
2023/05/12 03:07:06;;;;;;;;;;;;;;;16.66;46.77;101346.28;5078137;28;1128;-58
2023/05/12 03:09:33;;;;;;;;;;;;;;;16.46;46.20;101346.88;5078462;28;1269;-58
2023/05/12 03:11:58;;;;;;;;;;;;;;;17.83;47.36;101352.06;5093912;28;1992;-58
2023/05/12 03:14:25;;;;;;;;;;;;;;;16.92;48.35;101344.59;5078015;28;1161;-57
2023/05/12 03:16:51;;;;;;;;;;;;;;;16.80;48.33;101354.06;5069770;28;1207;-56
2023/05/12 03:19:16;;;;;;;;;;;;;;;17.50;48.18;101351.31;5059910;28;1130;-56
2023/05/12 03:21:42;;;;;;;;;;;;;;;16.85;48.32;101348.63;5091506;28;1002;-56
2023/05/12 03:24:08;;;;;;;;;;;;;;;16.65;47.47;101352.84;5086059;28;1007;-57
2023/05/12 03:26:34;;;;;;;;;;;;;;;16.56;46.70;101362.63;5077946;28;1050;-57
2023/05/12 03:28:59;;;;;;;;;;;;;;;17.30;47.57;101361.09;5077893;28;1106;-57
2023/05/12 03:31:25;;;;;;;;;;;;;;;16.95;48.43;101365.22;5074930;28;1973;-57
2023/05/12 03:33:51;;;;;;;;;;;;;;;17.06;48.61;101366.16;5086055;28;1113;-58
2023/05/12 03:36:16;;;;;;;;;;;;;;;18.25;47.52;101362.16;5083101;28;1232;-57
2023/05/12 03:38:42;;;;;;;;;;;;;;;17.21;48.53;101360.75;5067686;28;1240;-57
2023/05/12 03:41:07;;;;;;;;;;;;;;;16.84;47.92;101363.44;5057834;28;1266;-57
2023/05/12 03:43:34;;;;;;;;;;;;;;;16.77;46.94;101353.53;5068251;28;1256;-58
2023/05/12 03:46:02;;;;;;;;;;;;;;;16.58;46.27;101365.97;5077723;28;1252;-57
2023/05/12 03:48:28;;;;;;;;;;;;;;;17.02;48.44;101363.06;5077873;28;1113;-58
2023/05/12 03:50:55;;;;;;;;;;;;;;;16.71;47.83;101360.03;5091593;28;1022;-57
2023/05/12 03:53:20;;;;;;;;;;;;;;;18.38;47.46;101358.88;5086285;28;1965;-57
2023/05/12 03:55:46;;;;;;;;;;;;;;;17.39;48.83;101358.66;5078376;28;1051;-58
2023/05/12 03:58:11;;;;;;;;;;;;;;;16.96;48.28;101355.91;5075518;28;1011;-57
2023/05/12 04:00:37;;;;;;;;;;;;;;;16.78;47.52;101351.59;5061177;28;1112;-58
2023/05/12 04:03:03;;;;;;;;;;;;;;;16.67;46.58;101358.06;5041740;28;1273;-58
2023/05/12 04:05:28;;;;;;;;;;;;;;;17.40;47.85;101350.19;5055346;28;1190;-58
2023/05/12 04:07:54;;;;;;;;;;;;;;;16.83;48.08;101353.53;5037981;28;1274;-59
2023/05/12 04:10:20;;;;;;;;;;;;;;;17.75;48.11;101350.63;5055235;28;1179;-58
2023/05/12 04:12:45;;;;;;;;;;;;;;;17.40;48.88;101347.44;5055305;28;1913;-58
2023/05/12 04:15:13;;;;;;;;;;;;;;;17.00;47.98;101354.28;5041637;28;1235;-58
2023/05/12 04:17:39;;;;;;;;;;;;;;;16.76;47.61;101360.09;5041533;28;1254;-58
2023/05/12 04:20:06;;;;;;;;;;;;;;;16.64;46.93;101359.41;5059281;28;1376;-57
2023/05/12 04:22:31;;;;;;;;;;;;;;;17.47;48.16;101357.34;5078243;28;1171;-57
2023/05/12 04:24:57;;;;;;;;;;;;;;;17.26;48.34;101365.47;5071114;28;1500;-58
2023/05/12 04:27:23;;;;;;;;;;;;;;;16.82;48.06;101354.66;5067523;28;1111;-58
2023/05/12 04:29:48;;;;;;;;;;;;;;;17.11;48.65;101363.44;5045112;28;1166;-57
2023/05/12 04:32:14;;;;;;;;;;;;;;;17.03;48.22;101359.25;5058230;28;1906;-57
2023/05/12 04:34:40;;;;;;;;;;;;;;;16.65;47.86;101358.34;5048535;28;1149;-58
2023/05/12 04:37:06;;;;;;;;;;;;;;;16.56;46.88;101360.72;5055214;28;1178;-56
2023/05/12 04:39:32;;;;;;;;;;;;;;;17.22;47.39;101359.69;5079205;28;843;-57
2023/05/12 04:41:58;;;;;;;;;;;;;;;16.96;48.43;101361.38;5079449;28;1075;-57
2023/05/12 04:44:27;;;;;;;;;;;;;;;16.58;47.90;101357.72;5061465;28;1202;-57
2023/05/12 04:46:55;;;;;;;;;;;;;;;17.22;47.76;101356.09;5061341;28;1103;-57
2023/05/12 04:49:21;;;;;;;;;;;;;;;17.06;48.25;101358.72;5061506;28;1143;-57
2023/05/12 04:51:47;;;;;;;;;;;;;;;16.66;48.20;101346.28;5066234;28;1910;-58
2023/05/12 04:54:12;;;;;;;;;;;;;;;17.72;47.93;101352.00;5067269;28;1079;-58
2023/05/12 04:56:38;;;;;;;;;;;;;;;16.97;48.40;101342.97;5061147;28;1156;-57
2023/05/12 04:59:06;;;;;;;;;;;;;;;16.63;47.93;101343.22;5061300;28;1239;-57
2023/05/12 05:01:31;;;;;;;;;;;;;;;17.19;46.94;101351.13;5079154;28;1142;-58
2023/05/12 05:03:57;;;;;;;;;;;;;;;17.43;46.84;101346.91;5061125;28;1156;-58
2023/05/12 05:06:22;;;;;;;;;;;;;;;17.03;47.69;101355.69;5061118;28;1139;-58
2023/05/12 05:08:49;;;;;;;;;;;;;;;16.77;48.39;101359.00;5060890;28;1284;-56
2023/05/12 05:11:15;;;;;;;;;;;;;;;16.64;48.93;101364.09;5060953;28;1230;-57
2023/05/12 05:13:41;;;;;;;;;;;;;;;16.43;49.63;101359.19;5060736;28;1914;-57
2023/05/12 05:16:07;;;;;;;;;;;;;;;16.39;49.70;101358.06;5081864;28;1081;-57
2023/05/12 05:18:33;;;;;;;;;;;;;;;16.24;50.32;101357.88;5061526;28;1170;-57
2023/05/12 05:20:58;;;;;;;;;;;;;;;16.82;49.29;101365.63;5069855;28;1264;-57
2023/05/12 05:23:24;;;;;;;;;;;;;;;17.25;47.72;101367.41;5077675;28;1108;-58
2023/05/12 05:25:51;;;;;;;;;;;;;;;16.65;49.38;101379.47;5057405;28;1063;-57
2023/05/12 05:28:16;;;;;;;;;;;;;;;16.41;50.16;101371.53;5042343;28;1214;-57
2023/05/12 05:30:42;;;;;;;;;;;;;;;16.22;50.92;101373.81;5040584;28;1297;-58
2023/05/12 05:33:08;;;;;;;;;;;;;;;17.61;47.53;101369.53;5040269;28;1902;-57
2023/05/12 05:35:34;;;;;;;;;;;;;;;16.90;49.17;101370.66;5057822;28;1257;-56
2023/05/12 05:38:00;;;;;;;;;;;;;;;16.53;50.15;101380.44;5067578;28;1048;-55
2023/05/12 05:40:26;;;;;;;;;;;;;;;16.30;50.76;101375.25;5067266;28;1222;-58
2023/05/12 05:42:52;;;;;;;;;;;;;;;16.87;49.82;101374.75;5060233;28;1885;-57
2023/05/12 05:45:17;;;;;;;;;;;;;;;17.38;48.07;101379.84;5060610;28;1150;-58
2023/05/12 05:47:43;;;;;;;;;;;;;;;16.67;50.15;101380.03;5059995;28;1245;-58
2023/05/12 05:50:09;;;;;;;;;;;;;;;16.41;50.96;101383.34;5059952;28;1145;-56
2023/05/12 05:52:38;;;;;;;;;;;;;;;16.76;50.37;101379.31;5061455;28;2395;-59
2023/05/12 05:55:03;;;;;;;;;;;;;;;17.36;48.29;101382.03;5060015;28;1251;-58
2023/05/12 05:57:30;;;;;;;;;;;;;;;16.73;50.24;101390.81;5060048;28;1283;-58
2023/05/12 05:59:57;;;;;;;;;;;;;;;16.43;51.02;101380.34;5060046;28;1371;-57
2023/05/12 06:02:23;;;;;;;;;;;;;;;16.29;51.39;101390.88;5060159;28;1551;-57
2023/05/12 06:04:48;;;;;;;;;;;;;;;16.74;50.27;101395.22;5084071;28;1030;-57
2023/05/12 06:07:14;;;;;;;;;;;;;;;17.19;49.19;101384.91;5067537;28;1141;-57
2023/05/12 06:09:41;;;;;;;;;;;;;;;16.58;50.58;101393.41;5059762;28;1098;-57
2023/05/12 06:12:07;;;;;;;;;;;;;;;16.33;51.15;101385.72;5044723;28;1965;-57
2023/05/12 06:14:32;;;;;;;;;;;;;;;16.23;51.66;101392.75;5047746;28;1131;-57
2023/05/12 06:16:58;;;;;;;;;;;;;;;16.37;51.35;101398.69;5088819;28;1090;-58
2023/05/12 06:19:23;;;;;;;;;;;;;;;17.49;48.48;101390.91;5077625;28;1078;-57
2023/05/12 06:21:51;;;;;;;;;;;;;;;16.71;50.66;101382.00;5059387;28;1623;-58
2023/05/12 06:24:17;;;;;;;;;;;;;;;16.41;51.47;101388.00;5062977;28;1237;-59
2023/05/12 06:26:43;;;;;;;;;;;;;;;16.39;51.53;101388.25;5056857;28;1197;-58
2023/05/12 06:29:08;;;;;;;;;;;;;;;17.68;48.06;101388.56;5079322;28;840;-57
2023/05/12 06:31:34;;;;;;;;;;;;;;;16.86;50.22;101386.81;5059288;28;1897;-57
2023/05/12 06:34:01;;;;;;;;;;;;;;;16.53;51.25;101401.59;5077281;28;1173;-57
2023/05/12 06:36:27;;;;;;;;;;;;;;;16.36;51.51;101391.53;5076203;28;1054;-57
2023/05/12 06:38:53;;;;;;;;;;;;;;;16.89;50.37;101402.00;5044140;28;1202;-57
2023/05/12 06:41:20;;;;;;;;;;;;;;;17.44;48.93;101392.53;5084212;28;1159;-58
2023/05/12 06:43:46;;;;;;;;;;;;;;;16.73;50.84;101396.31;5076967;28;1244;-57
2023/05/12 06:46:13;;;;;;;;;;;;;;;16.45;51.46;101399.31;5076849;28;1118;-58
2023/05/12 06:48:41;;;;;;;;;;;;;;;16.30;51.94;101395.31;5077119;28;1128;-56
2023/05/12 06:51:07;;;;;;;;;;;;;;;17.64;48.57;101392.94;5076776;28;1030;-57
2023/05/12 06:53:36;;;;;;;;;;;;;;;17.03;50.11;101403.22;5079455;28;1980;-57
2023/05/12 06:56:02;;;;;;;;;;;;;;;16.60;51.24;101396.72;5076250;28;1070;-57
2023/05/12 06:58:29;;;;;;;;;;;;;;;16.35;51.78;101397.28;5076494;28;1019;-58
2023/05/12 07:00:54;;;;;;;;;;;;;;;17.44;49.35;101399.94;5071222;28;1257;-54
2023/05/12 07:03:20;;;;;;;;;;;;;;;17.16;49.86;101395.63;5068564;28;1141;-55
2023/05/12 07:05:45;;;;;;;;;;;;;;;16.66;51.19;101394.84;5086541;28;1031;-56
2023/05/12 07:08:11;;;;;;;;;;;;;;;16.46;51.83;101409.19;5065462;28;1022;-57
2023/05/12 07:10:37;;;;;;;;;;;;;;;16.32;51.94;101403.28;5070073;28;1164;-57
2023/05/12 07:13:03;;;;;;;;;;;;;;;17.57;49.00;101404.16;5076591;28;1964;-56
2023/05/12 07:15:28;;;;;;;;;;;;;;;16.97;50.35;101403.41;5058478;28;1147;-58
2023/05/12 07:17:54;;;;;;;;;;;;;;;16.64;51.21;101403.34;5059451;28;961;-58
2023/05/12 07:20:20;;;;;;;;;;;;;;;16.40;51.89;101409.13;5056022;28;1262;-57
2023/05/12 07:22:46;;;;;;;;;;;;;;;16.25;52.37;101406.22;5069730;28;1281;-58
2023/05/12 07:25:12;;;;;;;;;;;;;;;16.10;52.84;101419.75;5063774;28;1249;-56
2023/05/12 07:27:37;;;;;;;;;;;;;;;17.22;50.14;101413.81;5055500;28;1281;-58
2023/05/12 07:30:06;;;;;;;;;;;;;;;17.06;50.22;101410.91;5057821;28;1305;-56
2023/05/12 07:32:32;;;;;;;;;;;;;;;16.60;51.73;101415.94;5072578;28;1901;-56
2023/05/12 07:34:57;;;;;;;;;;;;;;;16.36;52.05;101413.47;5067670;28;1206;-58
2023/05/12 07:37:23;;;;;;;;;;;;;;;16.37;52.28;101423.38;5055330;28;1258;-57
2023/05/12 07:39:48;;;;;;;;;;;;;;;17.62;49.07;101423.44;5056596;28;1194;-55
2023/05/12 07:42:14;;;;;;;;;;;;;;;16.81;51.21;101425.22;5060382;28;1107;-55
2023/05/12 07:44:40;;;;;;;;;;;;;;;16.48;51.99;101421.59;5076194;28;1202;-52
2023/05/12 07:47:05;;;;;;;;;;;;;;;16.35;52.49;101422.78;5075982;28;1312;-55
2023/05/12 07:49:31;;;;;;;;;;;;;;;17.05;50.76;101425.75;5075589;28;1139;-57
2023/05/12 07:51:57;;;;;;;;;;;;;;;17.42;49.55;101413.97;5077163;28;1913;-53
2023/05/12 07:54:22;;;;;;;;;;;;;;;16.76;51.55;101428.75;5082385;28;856;-55
2023/05/12 07:56:48;;;;;;;;;;;;;;;16.52;51.94;101430.97;5075866;28;1202;-58
2023/05/12 07:59:13;;;;;;;;;;;;;;;16.32;52.37;101428.78;5075544;28;1069;-51
2023/05/12 08:01:39;;;;;;;;;;;;;;;16.30;52.62;101430.97;5062282;28;1194;-55
2023/05/12 08:04:05;;;;;;;;;;;;;;;17.67;49.33;101426.25;5075734;28;1121;-57
2023/05/12 08:06:31;;;;;;;;;;;;;;;16.84;51.44;101430.19;5069647;28;1060;-57
2023/05/12 08:08:57;;;;;;;;;;;;;;;16.51;52.22;101420.22;5068659;28;1131;-57
2023/05/12 08:11:23;;;;;;;;;;;;;;;16.37;52.48;101430.78;5062266;28;1174;-57
2023/05/12 08:13:49;;;;;;;;;;;;;;;16.47;52.48;101438.31;5048019;28;1965;-56
2023/05/12 08:16:14;;;;;;;;;;;;;;;17.70;49.32;101436.72;5062258;28;1150;-59
2023/05/12 08:18:40;;;;;;;;;;;;;;;16.91;51.37;101436.34;5073942;28;924;-53
2023/05/12 08:21:05;;;;;;;;;;;;;;;16.56;52.06;101439.50;5076067;28;1050;-57
2023/05/12 08:23:31;;;;;;;;;;;;;;;16.43;52.59;101438.81;5074145;28;1508;-56
2023/05/12 08:25:56;;;;;;;;;;;;;;;16.27;52.85;101444.38;5075131;28;1071;-56
2023/05/12 08:28:22;;;;;;;;;;;;;;;17.03;51.31;101447.16;5058848;28;1031;-57
2023/05/12 08:30:48;;;;;;;;;;;;;;;17.27;50.28;101449.59;5054926;28;1134;-57
2023/05/12 08:33:13;;;;;;;;;;;;;;;16.67;52.12;101443.19;5054663;28;1910;-56
2023/05/12 08:35:39;;;;;;;;;;;;;;;16.46;52.63;101444.88;5055068;28;1290;-58
2023/05/12 08:38:04;;;;;;;;;;;;;;;16.32;52.61;101439.78;5037009;28;1203;-56
2023/05/12 08:40:31;;;;;;;;;;;;;;;17.28;50.59;101451.25;5037342;28;1262;-57
2023/05/12 08:43:14;;;;;;;;;;;;;;;17.12;50.75;101450.25;5041445;28;1028;-57
2023/05/12 08:45:40;;;;;;;;;;;;;;;16.64;51.98;101447.28;5055238;28;1219;-57
2023/05/12 08:48:07;;;;;;;;;;;;;;;16.35;52.59;101452.97;5057474;28;1272;-57
2023/05/12 08:50:34;;;;;;;;;;;;;;;16.24;53.04;101453.94;5056998;28;1269;-58
2023/05/12 08:53:00;;;;;;;;;;;;;;;17.62;49.83;101450.97;5074784;28;1981;-56
2023/05/12 08:55:26;;;;;;;;;;;;;;;16.92;51.29;101440.75;5055638;28;1261;-57
2023/05/12 08:57:51;;;;;;;;;;;;;;;16.56;52.20;101439.50;5037234;28;1367;-53
2023/05/12 09:00:17;;;;;;;;;;;;;;;16.42;52.78;101447.31;5054038;28;1195;-58
2023/05/12 09:02:42;;;;;;;;;;;;;;;16.21;53.24;101451.72;5043739;28;1391;-57
2023/05/12 09:05:08;;;;;;;;;;;;;;;17.42;50.51;101440.66;5081852;28;1217;-57
2023/05/12 09:07:35;;;;;;;;;;;;;;;17.01;51.20;101449.38;5081233;28;1229;-57
2023/05/12 09:10:00;;;;;;;;;;;;;;;16.57;52.46;101441.16;5078322;28;1054;-56
2023/05/12 09:12:28;;;;;;;;;;;;;;;16.40;52.74;101433.84;5078594;28;1909;-56
2023/05/12 09:14:58;;;;;;;;;;;;;;;16.23;53.23;101447.63;5052652;28;1172;-56
2023/05/12 09:17:23;;;;;;;;;;;;;;;17.52;50.12;101445.38;5041693;28;1250;-57
2023/05/12 09:19:49;;;;;;;;;;;;;;;16.99;51.25;101453.44;5069878;28;1055;-56
2023/05/12 09:22:15;;;;;;;;;;;;;;;16.53;52.44;101445.50;5078666;28;1074;-56
2023/05/12 09:24:40;;;;;;;;;;;;;;;16.38;53.10;101426.94;5078477;28;1158;-57
2023/05/12 09:27:06;;;;;;;;;;;;;;;16.14;53.50;101431.88;5060199;28;1284;-56
2023/05/12 09:29:32;;;;;;;;;;;;;;;16.36;53.03;101429.94;5073070;28;1213;-56
2023/05/12 09:31:59;;;;;;;;;;;;;;;17.64;49.79;101446.00;5067165;28;1906;-58
2023/05/12 09:34:37;;;;;;;;;;;;;;;16.79;52.07;101426.56;5058441;28;1305;-58
2023/05/12 09:37:04;;;;;;;;;;;;;;;16.49;52.74;101438.88;5065220;28;1179;-56
2023/05/12 09:39:29;;;;;;;;;;;;;;;16.31;52.95;101434.53;5082702;28;978;-55
2023/05/12 09:41:55;;;;;;;;;;;;;;;16.57;52.50;101435.69;5062232;28;1285;-56
2023/05/12 09:44:20;;;;;;;;;;;;;;;17.70;49.44;101436.72;5056823;28;1245;-56
2023/05/12 09:46:46;;;;;;;;;;;;;;;16.92;51.47;101438.00;5055487;28;1242;-55
2023/05/12 09:49:13;;;;;;;;;;;;;;;16.57;52.39;101435.69;5056760;28;1317;-57
2023/05/12 09:51:39;;;;;;;;;;;;;;;16.42;52.69;101428.09;5073224;28;1898;-56
2023/05/12 09:54:05;;;;;;;;;;;;;;;17.81;49.40;101436.75;5069939;28;1186;-56
2023/05/12 09:56:31;;;;;;;;;;;;;;;16.96;51.58;101430.06;5056986;28;1187;-55
2023/05/12 09:58:57;;;;;;;;;;;;;;;16.63;52.39;101431.88;5056621;28;1298;-56
2023/05/12 10:01:22;;;;;;;;;;;;;;;16.47;52.51;101427.34;5055980;28;1151;-56
2023/05/12 10:03:49;;;;;;;;;;;;;;;17.39;50.36;101420.00;5056551;28;1297;-56
2023/05/12 10:06:17;;;;;;;;;;;;;;;17.15;50.81;101438.75;5043627;28;1207;-56
2023/05/12 10:08:44;;;;;;;;;;;;;;;16.65;52.01;101437.13;5038231;28;1247;-56
2023/05/12 10:11:09;;;;;;;;;;;;;;;16.45;52.81;101424.00;5056588;28;1258;-54
2023/05/12 10:13:35;;;;;;;;;;;;;;;16.30;52.99;101424.63;5056132;28;1922;-53
2023/05/12 10:16:00;;;;;;;;;;;;;;;17.50;50.34;101425.56;5055717;28;1226;-54
2023/05/12 10:18:26;;;;;;;;;;;;;;;16.98;51.39;101430.63;5041832;28;1183;-55
2023/05/12 10:20:52;;;;;;;;;;;;;;;16.60;52.39;101433.22;5056101;28;1277;-55
2023/05/12 10:23:18;;;;;;;;;;;;;;;16.43;52.96;101429.75;5073962;28;1286;-55
2023/05/12 10:25:44;;;;;;;;;;;;;;;16.25;53.30;101433.66;5076504;28;1094;-55
2023/05/12 10:28:10;;;;;;;;;;;;;;;16.81;52.12;101441.69;5057996;28;1169;-56
2023/05/12 10:30:39;;;;;;;;;;;;;;;17.62;49.80;101428.94;5079454;28;1038;-57
2023/05/12 10:33:07;;;;;;;;;;;;;;;16.78;52.17;101431.22;5047998;28;1968;-57
2023/05/12 10:35:33;;;;;;;;;;;;;;;16.51;52.94;101429.31;5076051;28;1118;-53
2023/05/12 10:38:08;;;;;;;;;;;;;;;16.36;53.28;101423.63;5075708;28;1180;-53
2023/05/12 10:40:34;;;;;;;;;;;;;;;16.62;52.52;101441.25;5075931;28;1187;-56
2023/05/12 10:43:00;;;;;;;;;;;;;;;17.61;50.01;101427.28;5075763;28;910;-55
2023/05/12 10:45:25;;;;;;;;;;;;;;;16.84;52.07;101437.59;5075376;28;1458;-56
2023/05/12 10:47:51;;;;;;;;;;;;;;;16.53;52.67;101440.03;5075909;28;1107;-55
2023/05/12 10:50:26;;;;;;;;;;;;;;;16.33;53.20;101433.22;5075872;28;1070;-56
2023/05/12 10:52:52;;;;;;;;;;;;;;;17.33;51.05;101439.47;5074839;28;1898;-56
2023/05/12 10:55:28;;;;;;;;;;;;;;;17.16;51.20;101432.16;5083473;28;1031;-55
2023/05/12 10:57:54;;;;;;;;;;;;;;;16.64;52.77;101439.06;5075321;28;999;-56
2023/05/12 11:00:21;;;;;;;;;;;;;;;16.48;53.05;101431.72;5075678;28;1077;-55
2023/05/12 11:02:49;;;;;;;;;;;;;;;16.26;53.34;101429.81;5075463;28;1142;-55
2023/05/12 11:05:15;;;;;;;;;;;;;;;16.23;53.56;101435.84;5075421;28;1078;-53
2023/05/12 11:07:45;;;;;;;;;;;;;;;17.40;51.04;101437.31;5073957;28;908;-56
2023/05/12 11:10:11;;;;;;;;;;;;;;;16.99;51.56;101440.53;5074988;28;1167;-56
2023/05/12 11:12:36;;;;;;;;;;;;;;;16.60;52.82;101443.41;5075292;28;1902;-57
2023/05/12 11:15:02;;;;;;;;;;;;;;;16.39;53.13;101440.41;5075071;28;1080;-56
2023/05/12 11:17:28;;;;;;;;;;;;;;;17.01;51.87;101451.25;5075584;28;1181;-56
2023/05/12 11:19:54;;;;;;;;;;;;;;;17.26;51.13;101445.16;5079424;28;1026;-55
2023/05/12 11:22:20;;;;;;;;;;;;;;;16.71;52.37;101441.59;5061264;28;1000;-55
2023/05/12 11:24:46;;;;;;;;;;;;;;;16.51;52.93;101447.66;5066998;28;1151;-54
2023/05/12 11:27:16;;;;;;;;;;;;;;;16.29;53.44;101445.78;5063700;28;1003;-55
2023/05/12 11:29:42;;;;;;;;;;;;;;;16.53;53.17;101443.59;5086138;28;1127;-55
2023/05/12 11:32:08;;;;;;;;;;;;;;;17.59;50.24;101446.81;5077678;28;1902;-54
2023/05/12 11:34:33;;;;;;;;;;;;;;;16.83;52.28;101449.66;5089005;28;1126;-54
2023/05/12 11:36:59;;;;;;;;;;;;;;;16.53;52.86;101443.59;5074904;28;979;-54
2023/05/12 11:39:25;;;;;;;;;;;;;;;16.36;53.23;101451.09;5063089;28;1197;-55
2023/05/12 11:41:51;;;;;;;;;;;;;;;16.83;52.71;101449.66;5082850;28;899;-55
2023/05/12 11:44:17;;;;;;;;;;;;;;;17.46;50.66;101450.03;5064623;28;981;-54
2023/05/12 11:46:58;;;;;;;;;;;;;;;16.77;52.29;101444.16;5054198;28;1328;-55
2023/05/12 11:49:24;;;;;;;;;;;;;;;16.47;53.04;101441.06;5066402;28;1052;-55
2023/05/12 11:51:50;;;;;;;;;;;;;;;16.35;53.57;101444.75;5054048;28;1979;-53
2023/05/12 11:54:16;;;;;;;;;;;;;;;16.34;53.45;101437.63;5069735;28;844;-55
2023/05/12 11:56:46;;;;;;;;;;;;;;;17.72;50.08;101440.00;5083478;28;1037;-56
2023/05/12 11:59:11;;;;;;;;;;;;;;;16.92;52.22;101442.66;5081574;28;834;-55
2023/05/12 12:01:43;;;;;;;;;;;;;;;16.60;52.83;101438.72;5065500;28;979;-57
2023/05/12 12:04:09;;;;;;;;;;;;;;;16.34;53.44;101448.59;5074709;28;1075;-57
2023/05/12 12:06:41;;;;;;;;;;;;;;;16.33;53.44;101444.19;5077283;28;1150;-57
2023/05/12 12:09:07;;;;;;;;;;;;;;;17.65;50.20;101444.91;5066972;28;1138;-56
2023/05/12 12:11:33;;;;;;;;;;;;;;;16.87;52.36;101442.56;5074899;28;1149;-57
2023/05/12 12:13:59;;;;;;;;;;;;;;;16.52;53.11;101438.34;5074378;28;1980;-55
2023/05/12 12:16:25;;;;;;;;;;;;;;;16.45;53.30;101434.97;5074965;28;1174;-55
2023/05/12 12:18:51;;;;;;;;;;;;;;;17.07;51.88;101434.56;5077796;28;983;-55
2023/05/12 12:21:17;;;;;;;;;;;;;;;17.20;51.21;101427.00;5074415;28;1126;-55
2023/05/12 12:23:42;;;;;;;;;;;;;;;16.71;52.68;101425.94;5074740;28;1012;-57
2023/05/12 12:26:08;;;;;;;;;;;;;;;16.42;53.25;101428.94;5062967;28;1003;-56
2023/05/12 12:28:34;;;;;;;;;;;;;;;16.31;53.69;101435.34;5054056;28;1273;-55
2023/05/12 12:30:59;;;;;;;;;;;;;;;17.55;50.57;101428.34;5059991;28;1146;-55
2023/05/12 12:33:25;;;;;;;;;;;;;;;17.08;51.61;101422.50;5058556;28;1963;-55
2023/05/12 12:35:51;;;;;;;;;;;;;;;16.65;52.65;101421.50;5063285;28;956;-54
2023/05/12 12:38:17;;;;;;;;;;;;;;;16.49;53.04;101428.72;5068887;28;1337;-54
2023/05/12 12:40:42;;;;;;;;;;;;;;;16.28;53.77;101427.66;5091625;28;1449;-55
2023/05/12 12:43:08;;;;;;;;;;;;;;;16.18;53.96;101438.50;5090518;28;994;-54